sensor_id;sensor_type;location;lat;lon;timestamp;pressure;altitude;pressure_sealevel;temperature;humidity
64683;BME280;51107;47.652;19.016;2024-03-25T00:00:14;98876.44;;;3.73;96.45
64683;BME280;51107;47.652;19.016;2024-03-25T00:02:42;98874.53;;;3.76;95.27
64683;BME280;51107;47.652;19.016;2024-03-25T00:05:09;98874.66;;;3.74;96.16
64683;BME280;51107;47.652;19.016;2024-03-25T00:07:37;98885.91;;;3.73;95.43
64683;BME280;51107;47.652;19.016;2024-03-25T00:10:05;98876.00;;;3.68;96.06
64683;BME280;51107;47.652;19.016;2024-03-25T00:12:35;98869.88;;;3.60;95.75
64683;BME280;51107;47.652;19.016;2024-03-25T00:15:02;98868.41;;;3.46;97.34
64683;BME280;51107;47.652;19.016;2024-03-25T00:17:30;98868.31;;;3.47;96.14
64683;BME280;51107;47.652;19.016;2024-03-25T00:19:57;98854.72;;;3.45;96.44
64683;BME280;51107;47.652;19.016;2024-03-25T00:22:24;98872.87;;;3.44;96.03
64683;BME280;51107;47.652;19.016;2024-03-25T00:24:54;98866.41;;;3.49;95.64
64683;BME280;51107;47.652;19.016;2024-03-25T00:27:22;98859.06;;;3.23;96.21
64683;BME280;51107;47.652;19.016;2024-03-25T00:29:49;98863.66;;;3.20;97.79
64683;BME280;51107;47.652;19.016;2024-03-25T00:32:16;98860.88;;;3.33;97.47
64683;BME280;51107;47.652;19.016;2024-03-25T00:34:43;98869.00;;;3.28;96.74
64683;BME280;51107;47.652;19.016;2024-03-25T00:37:10;98866.78;;;3.45;96.12
64683;BME280;51107;47.652;19.016;2024-03-25T00:39:37;98867.22;;;3.50;95.52
64683;BME280;51107;47.652;19.016;2024-03-25T00:42:04;98861.00;;;3.52;95.23
64683;BME280;51107;47.652;19.016;2024-03-25T00:44:31;98860.84;;;3.54;94.87
64683;BME280;51107;47.652;19.016;2024-03-25T00:46:59;98858.94;;;3.46;95.79
64683;BME280;51107;47.652;19.016;2024-03-25T00:49:26;98849.87;;;3.52;95.20
64683;BME280;51107;47.652;19.016;2024-03-25T00:51:53;98858.06;;;3.57;94.34
64683;BME280;51107;47.652;19.016;2024-03-25T00:54:20;98849.19;;;3.50;94.49
64683;BME280;51107;47.652;19.016;2024-03-25T00:56:47;98847.75;;;3.36;95.65
64683;BME280;51107;47.652;19.016;2024-03-25T00:59:14;98856.69;;;3.32;96.85
64683;BME280;51107;47.652;19.016;2024-03-25T01:01:41;98856.81;;;3.30;97.00
64683;BME280;51107;47.652;19.016;2024-03-25T01:04:08;98855.19;;;3.29;97.13
64683;BME280;51107;47.652;19.016;2024-03-25T01:06:35;98850.50;;;3.44;95.70
64683;BME280;51107;47.652;19.016;2024-03-25T01:09:03;98854.41;;;3.38;96.08
64683;BME280;51107;47.652;19.016;2024-03-25T01:11:31;98846.25;;;3.33;96.39
64683;BME280;51107;47.652;19.016;2024-03-25T01:13:58;98847.75;;;3.36;96.09
64683;BME280;51107;47.652;19.016;2024-03-25T01:16:25;98846.50;;;3.30;96.05
64683;BME280;51107;47.652;19.016;2024-03-25T01:18:52;98846.50;;;3.30;96.38
64683;BME280;51107;47.652;19.016;2024-03-25T01:21:19;98847.47;;;3.29;97.24
64683;BME280;51107;47.652;19.016;2024-03-25T01:23:46;98854.12;;;3.11;96.60
64683;BME280;51107;47.652;19.016;2024-03-25T01:26:13;98852.41;;;3.42;96.08
64683;BME280;51107;47.652;19.016;2024-03-25T01:28:41;98849.44;;;3.47;95.29
64683;BME280;51107;47.652;19.016;2024-03-25T01:31:08;98848.16;;;3.62;93.68
64683;BME280;51107;47.652;19.016;2024-03-25T01:33:35;98837.31;;;3.37;95.62
64683;BME280;51107;47.652;19.016;2024-03-25T01:36:02;98847.44;;;3.50;95.54
64683;BME280;51107;47.652;19.016;2024-03-25T01:38:30;98846.59;;;3.50;95.16
64683;BME280;51107;47.652;19.016;2024-03-25T01:41:07;98836.22;;;3.51;94.94
64683;BME280;51107;47.652;19.016;2024-03-25T01:43:35;98842.59;;;3.57;94.90
64683;BME280;51107;47.652;19.016;2024-03-25T01:46:02;98840.97;;;3.56;94.89
64683;BME280;51107;47.652;19.016;2024-03-25T01:48:29;98827.50;;;3.52;95.21
64683;BME280;51107;47.652;19.016;2024-03-25T01:50:57;98824.56;;;3.57;94.96
64683;BME280;51107;47.652;19.016;2024-03-25T01:53:25;98833.84;;;3.69;93.87
64683;BME280;51107;47.652;19.016;2024-03-25T01:55:55;98826.19;;;3.89;92.15
64683;BME280;51107;47.652;19.016;2024-03-25T01:58:24;98825.88;;;3.82;92.73
64683;BME280;51107;47.652;19.016;2024-03-25T02:00:54;98831.34;;;3.99;90.67
64683;BME280;51107;47.652;19.016;2024-03-25T02:03:22;98834.97;;;3.86;91.61
64683;BME280;51107;47.652;19.016;2024-03-25T02:05:54;98831.91;;;3.93;91.73
64683;BME280;51107;47.652;19.016;2024-03-25T02:08:22;98831.91;;;3.93;90.81
64683;BME280;51107;47.652;19.016;2024-03-25T02:10:50;98830.94;;;3.94;92.03
64683;BME280;51107;47.652;19.016;2024-03-25T02:13:18;98830.56;;;4.08;89.90
64683;BME280;51107;47.652;19.016;2024-03-25T02:15:45;98830.16;;;4.13;89.91
64683;BME280;51107;47.652;19.016;2024-03-25T02:18:12;98824.88;;;4.24;89.68
64683;BME280;51107;47.652;19.016;2024-03-25T02:20:39;98837.63;;;4.25;88.27
64683;BME280;51107;47.652;19.016;2024-03-25T02:23:07;98834.25;;;4.25;89.34
64683;BME280;51107;47.652;19.016;2024-03-25T02:25:38;98841.03;;;4.06;89.58
64683;BME280;51107;47.652;19.016;2024-03-25T02:28:05;98835.72;;;4.08;89.95
64683;BME280;51107;47.652;19.016;2024-03-25T02:30:33;98836.25;;;4.12;90.62
64683;BME280;51107;47.652;19.016;2024-03-25T02:33:00;98839.25;;;4.17;90.19
64683;BME280;51107;47.652;19.016;2024-03-25T02:35:27;98832.47;;;4.16;90.83
64683;BME280;51107;47.652;19.016;2024-03-25T02:37:54;98827.59;;;4.13;90.72
64683;BME280;51107;47.652;19.016;2024-03-25T02:40:21;98829.38;;;4.22;91.08
64683;BME280;51107;47.652;19.016;2024-03-25T02:42:49;98836.31;;;4.31;89.26
64683;BME280;51107;47.652;19.016;2024-03-25T02:45:17;98823.28;;;4.33;88.66
64683;BME280;51107;47.652;19.016;2024-03-25T02:47:45;98829.53;;;4.30;89.31
64683;BME280;51107;47.652;19.016;2024-03-25T02:50:12;98832.91;;;4.40;88.58
64683;BME280;51107;47.652;19.016;2024-03-25T02:52:40;98836.72;;;4.36;88.41
64683;BME280;51107;47.652;19.016;2024-03-25T02:55:07;98835.63;;;4.49;86.87
64683;BME280;51107;47.652;19.016;2024-03-25T02:57:34;98840.00;;;4.58;85.78
64683;BME280;51107;47.652;19.016;2024-03-25T03:00:01;98840.56;;;4.52;86.47
64683;BME280;51107;47.652;19.016;2024-03-25T03:02:29;98850.97;;;4.40;87.56
64683;BME280;51107;47.652;19.016;2024-03-25T03:04:56;98851.25;;;4.37;87.56
64683;BME280;51107;47.652;19.016;2024-03-25T03:07:23;98840.94;;;4.37;87.66
64683;BME280;51107;47.652;19.016;2024-03-25T03:09:50;98849.09;;;4.42;86.99
64683;BME280;51107;47.652;19.016;2024-03-25T03:12:17;98844.75;;;4.53;86.38
64683;BME280;51107;47.652;19.016;2024-03-25T03:14:44;98850.03;;;4.41;86.37
64683;BME280;51107;47.652;19.016;2024-03-25T03:17:11;98851.53;;;4.54;85.92
64683;BME280;51107;47.652;19.016;2024-03-25T03:19:38;98848.81;;;4.46;85.88
64683;BME280;51107;47.652;19.016;2024-03-25T03:22:05;98856.66;;;4.24;88.39
64683;BME280;51107;47.652;19.016;2024-03-25T03:24:32;98855.59;;;4.27;87.52
64683;BME280;51107;47.652;19.016;2024-03-25T03:27:00;98861.84;;;4.34;87.74
64683;BME280;51107;47.652;19.016;2024-03-25T03:29:27;98859.78;;;4.38;86.72
64683;BME280;51107;47.652;19.016;2024-03-25T03:31:55;98859.41;;;4.42;86.51
64683;BME280;51107;47.652;19.016;2024-03-25T03:34:22;98857.91;;;4.40;87.27
64683;BME280;51107;47.652;19.016;2024-03-25T03:36:49;98855.47;;;4.38;87.96
64683;BME280;51107;47.652;19.016;2024-03-25T03:39:16;98865.50;;;4.41;88.09
64683;BME280;51107;47.652;19.016;2024-03-25T03:41:43;98860.75;;;4.47;88.04
64683;BME280;51107;47.652;19.016;2024-03-25T03:44:10;98863.47;;;4.45;88.25
64683;BME280;51107;47.652;19.016;2024-03-25T03:46:39;98869.84;;;4.41;88.91
64683;BME280;51107;47.652;19.016;2024-03-25T03:49:06;98860.50;;;4.50;88.85
64683;BME280;51107;47.652;19.016;2024-03-25T03:51:33;98863.50;;;4.55;88.62
64683;BME280;51107;47.652;19.016;2024-03-25T03:54:00;98857.25;;;4.57;88.68
64683;BME280;51107;47.652;19.016;2024-03-25T03:56:27;98858.34;;;4.65;88.16
64683;BME280;51107;47.652;19.016;2024-03-25T03:58:54;98866.06;;;4.84;87.27
64683;BME280;51107;47.652;19.016;2024-03-25T04:01:21;98850.03;;;4.81;87.27
64683;BME280;51107;47.652;19.016;2024-03-25T04:03:49;98857.91;;;4.69;87.01
64683;BME280;51107;47.652;19.016;2024-03-25T04:06:16;98868.50;;;5.05;84.74
64683;BME280;51107;47.652;19.016;2024-03-25T04:08:43;98871.22;;;4.94;84.32
64683;BME280;51107;47.652;19.016;2024-03-25T04:11:10;98877.34;;;5.03;84.76
64683;BME280;51107;47.652;19.016;2024-03-25T04:13:37;98883.34;;;4.84;85.94
64683;BME280;51107;47.652;19.016;2024-03-25T04:16:05;98876.12;;;4.97;85.10
64683;BME280;51107;47.652;19.016;2024-03-25T04:18:33;98879.53;;;5.07;84.77
64683;BME280;51107;47.652;19.016;2024-03-25T04:21:00;98876.53;;;5.02;86.02
64683;BME280;51107;47.652;19.016;2024-03-25T04:23:27;98879.66;;;4.96;86.69
64683;BME280;51107;47.652;19.016;2024-03-25T04:25:55;98873.00;;;5.03;85.89
64683;BME280;51107;47.652;19.016;2024-03-25T04:28:22;98885.81;;;5.62;81.45
64683;BME280;51107;47.652;19.016;2024-03-25T04:30:53;98889.00;;;5.36;82.04
64683;BME280;51107;47.652;19.016;2024-03-25T04:33:21;98884.66;;;5.27;84.38
64683;BME280;51107;47.652;19.016;2024-03-25T04:35:48;98881.78;;;5.30;83.27
64683;BME280;51107;47.652;19.016;2024-03-25T04:38:16;98887.66;;;5.32;84.23
64683;BME280;51107;47.652;19.016;2024-03-25T04:40:43;98886.56;;;5.35;84.81
64683;BME280;51107;47.652;19.016;2024-03-25T04:43:13;98895.66;;;5.39;83.92
64683;BME280;51107;47.652;19.016;2024-03-25T04:45:40;98896.47;;;5.39;83.71
64683;BME280;51107;47.652;19.016;2024-03-25T04:48:08;98900.00;;;5.38;83.91
64683;BME280;51107;47.652;19.016;2024-03-25T04:50:34;98903.09;;;5.52;82.37
64683;BME280;51107;47.652;19.016;2024-03-25T04:53:01;98905.81;;;5.50;82.22
64683;BME280;51107;47.652;19.016;2024-03-25T04:55:29;98898.09;;;5.40;82.81
64683;BME280;51107;47.652;19.016;2024-03-25T04:57:56;98913.97;;;5.55;81.63
64683;BME280;51107;47.652;19.016;2024-03-25T05:00:23;98919.37;;;5.72;80.83
64683;BME280;51107;47.652;19.016;2024-03-25T05:02:50;98911.66;;;5.52;82.37
64683;BME280;51107;47.652;19.016;2024-03-25T05:05:17;98918.63;;;5.32;82.20
64683;BME280;51107;47.652;19.016;2024-03-25T05:07:44;98912.88;;;5.48;82.46
64683;BME280;51107;47.652;19.016;2024-03-25T05:10:11;98918.75;;;5.50;82.05
64683;BME280;51107;47.652;19.016;2024-03-25T05:12:38;98924.06;;;5.39;82.70
64683;BME280;51107;47.652;19.016;2024-03-25T05:15:05;98918.06;;;5.38;82.93
64683;BME280;51107;47.652;19.016;2024-03-25T05:17:32;98917.25;;;5.48;82.51
64683;BME280;51107;47.652;19.016;2024-03-25T05:19:59;98918.44;;;5.63;81.68
64683;BME280;51107;47.652;19.016;2024-03-25T05:22:26;98933.00;;;5.64;81.54
64683;BME280;51107;47.652;19.016;2024-03-25T05:24:54;98939.81;;;5.55;81.21
64683;BME280;51107;47.652;19.016;2024-03-25T05:27:21;98936.00;;;5.59;81.31
64683;BME280;51107;47.652;19.016;2024-03-25T05:29:49;98936.81;;;5.60;81.39
64683;BME280;51107;47.652;19.016;2024-03-25T05:32:16;98944.97;;;5.55;82.99
64683;BME280;51107;47.652;19.016;2024-03-25T05:34:44;98949.59;;;5.52;82.72
64683;BME280;51107;47.652;19.016;2024-03-25T05:37:12;98937.38;;;5.54;82.87
64683;BME280;51107;47.652;19.016;2024-03-25T05:39:39;98948.91;;;5.59;83.00
64683;BME280;51107;47.652;19.016;2024-03-25T05:42:06;98948.91;;;5.69;82.93
64683;BME280;51107;47.652;19.016;2024-03-25T05:44:33;98947.78;;;5.82;81.59
64683;BME280;51107;47.652;19.016;2024-03-25T05:47:00;98943.13;;;5.85;82.26
64683;BME280;51107;47.652;19.016;2024-03-25T05:49:28;98954.09;;;5.50;84.19
64683;BME280;51107;47.652;19.016;2024-03-25T05:51:55;98950.53;;;5.51;85.33
64683;BME280;51107;47.652;19.016;2024-03-25T05:54:22;98950.44;;;5.33;85.80
64683;BME280;51107;47.652;19.016;2024-03-25T05:56:49;98956.66;;;5.40;86.83
64683;BME280;51107;47.652;19.016;2024-03-25T05:59:16;98951.78;;;5.47;86.96
64683;BME280;51107;47.652;19.016;2024-03-25T06:01:44;98956.28;;;5.44;86.77
64683;BME280;51107;47.652;19.016;2024-03-25T06:04:11;98956.41;;;5.53;87.35
64683;BME280;51107;47.652;19.016;2024-03-25T06:06:38;98954.34;;;5.47;87.82
64683;BME280;51107;47.652;19.016;2024-03-25T06:09:05;98958.53;;;5.67;86.41
64683;BME280;51107;47.652;19.016;2024-03-25T06:11:33;98960.00;;;5.79;86.52
64683;BME280;51107;47.652;19.016;2024-03-25T06:14:00;98953.25;;;5.78;86.22
64683;BME280;51107;47.652;19.016;2024-03-25T06:16:27;98957.16;;;5.73;86.06
64683;BME280;51107;47.652;19.016;2024-03-25T06:18:55;98974.84;;;5.77;87.34
64683;BME280;51107;47.652;19.016;2024-03-25T06:21:22;98963.56;;;5.78;88.46
64683;BME280;51107;47.652;19.016;2024-03-25T06:23:50;98972.94;;;5.79;87.14
64683;BME280;51107;47.652;19.016;2024-03-25T06:26:17;98966.16;;;5.78;87.44
64683;BME280;51107;47.652;19.016;2024-03-25T06:28:44;98967.78;;;5.79;87.42
64683;BME280;51107;47.652;19.016;2024-03-25T06:31:12;98967.78;;;5.79;87.41
64683;BME280;51107;47.652;19.016;2024-03-25T06:33:58;98969.12;;;5.84;86.59
64683;BME280;51107;47.652;19.016;2024-03-25T06:36:44;98971.31;;;5.88;87.33
64683;BME280;51107;47.652;19.016;2024-03-25T06:39:12;98971.69;;;5.84;87.64
64683;BME280;51107;47.652;19.016;2024-03-25T06:41:38;98973.16;;;5.96;88.19
64683;BME280;51107;47.652;19.016;2024-03-25T06:44:06;98966.13;;;5.98;86.50
64683;BME280;51107;47.652;19.016;2024-03-25T06:46:33;98972.00;;;5.81;87.39
64683;BME280;51107;47.652;19.016;2024-03-25T06:49:00;98970.63;;;5.86;86.45
64683;BME280;51107;47.652;19.016;2024-03-25T06:51:27;98982.72;;;6.05;85.73
64683;BME280;51107;47.652;19.016;2024-03-25T06:53:54;98984.41;;;6.24;85.44
64683;BME280;51107;47.652;19.016;2024-03-25T06:56:22;98979.28;;;6.15;84.64
64683;BME280;51107;47.652;19.016;2024-03-25T06:58:49;98989.72;;;6.23;85.06
64683;BME280;51107;47.652;19.016;2024-03-25T07:01:16;98976.31;;;6.37;84.55
64683;BME280;51107;47.652;19.016;2024-03-25T07:03:43;98980.53;;;6.66;82.95
64683;BME280;51107;47.652;19.016;2024-03-25T07:06:10;98979.06;;;6.63;81.82
64683;BME280;51107;47.652;19.016;2024-03-25T07:08:37;98981.84;;;6.98;80.95
64683;BME280;51107;47.652;19.016;2024-03-25T07:11:04;98978.94;;;6.83;79.43
64683;BME280;51107;47.652;19.016;2024-03-25T07:13:31;98987.09;;;6.88;80.83
64683;BME280;51107;47.652;19.016;2024-03-25T07:15:58;98981.34;;;6.94;77.12
64683;BME280;51107;47.652;19.016;2024-03-25T07:18:25;98983.25;;;7.10;76.74
64683;BME280;51107;47.652;19.016;2024-03-25T07:20:52;98977.81;;;7.13;78.03
64683;BME280;51107;47.652;19.016;2024-03-25T07:23:20;98988.22;;;7.40;74.96
64683;BME280;51107;47.652;19.016;2024-03-25T07:25:47;98994.00;;;7.16;75.17
64683;BME280;51107;47.652;19.016;2024-03-25T07:28:14;98988.09;;;7.23;76.07
64683;BME280;51107;47.652;19.016;2024-03-25T07:30:41;99002.56;;;7.16;75.07
64683;BME280;51107;47.652;19.016;2024-03-25T07:33:08;98992.28;;;7.06;75.67
64683;BME280;51107;47.652;19.016;2024-03-25T07:35:35;99001.22;;;7.12;75.12
64683;BME280;51107;47.652;19.016;2024-03-25T07:38:03;98995.16;;;7.21;74.78
64683;BME280;51107;47.652;19.016;2024-03-25T07:40:30;98995.53;;;7.44;74.44
64683;BME280;51107;47.652;19.016;2024-03-25T07:42:57;98998.81;;;7.91;71.92
64683;BME280;51107;47.652;19.016;2024-03-25T07:45:25;98997.53;;;7.95;74.77
64683;BME280;51107;47.652;19.016;2024-03-25T07:47:53;99000.41;;;7.92;72.56
64683;BME280;51107;47.652;19.016;2024-03-25T07:50:20;99008.59;;;8.05;72.60
64683;BME280;51107;47.652;19.016;2024-03-25T07:52:48;99015.13;;;8.09;70.46
64683;BME280;51107;47.652;19.016;2024-03-25T07:55:15;99008.00;;;8.11;70.87
64683;BME280;51107;47.652;19.016;2024-03-25T07:57:42;99005.22;;;8.05;70.55
64683;BME280;51107;47.652;19.016;2024-03-25T08:00:09;99008.44;;;8.07;71.03
64683;BME280;51107;47.652;19.016;2024-03-25T08:02:38;99008.97;;;8.10;70.00
64683;BME280;51107;47.652;19.016;2024-03-25T08:05:06;98999.34;;;8.03;69.54
64683;BME280;51107;47.652;19.016;2024-03-25T08:07:33;99005.78;;;7.72;69.69
64683;BME280;51107;47.652;19.016;2024-03-25T08:10:00;99006.38;;;8.10;69.36
64683;BME280;51107;47.652;19.016;2024-03-25T08:12:27;99005.06;;;8.75;68.51
64683;BME280;51107;47.652;19.016;2024-03-25T08:14:54;98999.91;;;8.83;66.91
64683;BME280;51107;47.652;19.016;2024-03-25T08:17:21;99009.66;;;8.98;68.37
64683;BME280;51107;47.652;19.016;2024-03-25T08:19:48;99003.53;;;9.15;66.97
64683;BME280;51107;47.652;19.016;2024-03-25T08:22:15;99011.50;;;9.22;66.13
64683;BME280;51107;47.652;19.016;2024-03-25T08:24:42;99003.06;;;9.53;63.40
64683;BME280;51107;47.652;19.016;2024-03-25T08:27:09;99007.44;;;9.94;63.64
64683;BME280;51107;47.652;19.016;2024-03-25T08:29:36;99009.78;;;10.36;65.46
64683;BME280;51107;47.652;19.016;2024-03-25T08:32:03;99003.31;;;10.72;65.59
64683;BME280;51107;47.652;19.016;2024-03-25T08:34:30;99001.34;;;11.05;59.65
64683;BME280;51107;47.652;19.016;2024-03-25T08:36:57;99004.97;;;11.19;58.50
64683;BME280;51107;47.652;19.016;2024-03-25T08:39:25;99000.94;;;11.40;57.04
64683;BME280;51107;47.652;19.016;2024-03-25T08:41:52;99005.63;;;11.21;57.79
64683;BME280;51107;47.652;19.016;2024-03-25T08:44:19;99006.22;;;10.77;57.89
64683;BME280;51107;47.652;19.016;2024-03-25T08:46:46;98998.38;;;10.85;58.21
64683;BME280;51107;47.652;19.016;2024-03-25T08:49:13;98995.59;;;11.56;57.76
64683;BME280;51107;47.652;19.016;2024-03-25T08:51:41;98999.44;;;10.99;57.93
64683;BME280;51107;47.652;19.016;2024-03-25T08:54:08;98999.94;;;10.95;57.08
64683;BME280;51107;47.652;19.016;2024-03-25T08:56:35;99006.75;;;10.96;59.80
64683;BME280;51107;47.652;19.016;2024-03-25T08:59:02;99001.72;;;10.94;58.28
64683;BME280;51107;47.652;19.016;2024-03-25T09:01:29;99002.31;;;11.04;57.20
64683;BME280;51107;47.652;19.016;2024-03-25T09:03:57;99000.66;;;10.80;57.68
64683;BME280;51107;47.652;19.016;2024-03-25T09:06:24;99000.50;;;11.36;58.59
64683;BME280;51107;47.652;19.016;2024-03-25T09:08:51;99004.09;;;11.73;55.53
64683;BME280;51107;47.652;19.016;2024-03-25T09:11:37;98995.47;;;11.88;53.91
64683;BME280;51107;47.652;19.016;2024-03-25T09:14:04;98997.19;;;10.88;57.29
64683;BME280;51107;47.652;19.016;2024-03-25T09:16:32;99006.31;;;10.61;57.22
64683;BME280;51107;47.652;19.016;2024-03-25T09:19:00;99016.47;;;10.31;61.07
64683;BME280;51107;47.652;19.016;2024-03-25T09:21:27;99021.44;;;9.68;64.11
64683;BME280;51107;47.652;19.016;2024-03-25T09:23:54;99007.25;;;9.95;62.60
64683;BME280;51107;47.652;19.016;2024-03-25T09:26:22;99018.97;;;9.83;62.38
64683;BME280;51107;47.652;19.016;2024-03-25T09:28:53;99012.00;;;10.56;61.73
64683;BME280;51107;47.652;19.016;2024-03-25T09:31:20;99007.47;;;11.13;61.00
64683;BME280;51107;47.652;19.016;2024-03-25T09:33:47;98989.69;;;11.63;57.69
64683;BME280;51107;47.652;19.016;2024-03-25T09:36:14;99000.84;;;12.10;56.97
64683;BME280;51107;47.652;19.016;2024-03-25T09:38:41;99008.13;;;11.76;56.75
64683;BME280;51107;47.652;19.016;2024-03-25T09:41:09;98998.78;;;11.67;56.15
64683;BME280;51107;47.652;19.016;2024-03-25T09:44:02;99008.50;;;11.50;55.49
64683;BME280;51107;47.652;19.016;2024-03-25T09:46:32;99011.41;;;11.09;54.87
64683;BME280;51107;47.652;19.016;2024-03-25T09:49:00;99008.31;;;10.82;53.47
64683;BME280;51107;47.652;19.016;2024-03-25T09:51:27;99012.56;;;10.35;55.09
64683;BME280;51107;47.652;19.016;2024-03-25T09:53:54;99017.09;;;10.33;54.52
64683;BME280;51107;47.652;19.016;2024-03-25T09:56:22;99003.28;;;10.41;55.01
64683;BME280;51107;47.652;19.016;2024-03-25T09:58:49;99001.84;;;10.69;56.49
64683;BME280;51107;47.652;19.016;2024-03-25T10:01:18;98989.56;;;11.56;53.49
64683;BME280;51107;47.652;19.016;2024-03-25T10:03:45;99010.44;;;11.94;53.19
64683;BME280;51107;47.652;19.016;2024-03-25T10:06:12;99000.88;;;11.86;50.11
64683;BME280;51107;47.652;19.016;2024-03-25T10:08:40;99004.16;;;11.65;51.52
64683;BME280;51107;47.652;19.016;2024-03-25T10:11:07;98996.41;;;11.95;52.58
64683;BME280;51107;47.652;19.016;2024-03-25T10:13:34;98999.97;;;11.79;52.34
64683;BME280;51107;47.652;19.016;2024-03-25T10:16:02;98991.12;;;11.80;51.02
64683;BME280;51107;47.652;19.016;2024-03-25T10:18:30;98990.03;;;11.98;50.10
64683;BME280;51107;47.652;19.016;2024-03-25T10:20:57;98991.94;;;11.43;51.58
64683;BME280;51107;47.652;19.016;2024-03-25T10:23:24;98992.12;;;11.41;52.66
64683;BME280;51107;47.652;19.016;2024-03-25T10:25:55;98993.13;;;11.78;51.86
64683;BME280;51107;47.652;19.016;2024-03-25T10:28:22;98993.09;;;12.01;50.02
64683;BME280;51107;47.652;19.016;2024-03-25T10:30:49;98992.88;;;11.50;50.64
64683;BME280;51107;47.652;19.016;2024-03-25T10:33:17;98981.75;;;11.10;52.38
64683;BME280;51107;47.652;19.016;2024-03-25T10:35:44;98988.28;;;11.05;53.08
64683;BME280;51107;47.652;19.016;2024-03-25T10:38:18;98986.91;;;10.95;54.19
64683;BME280;51107;47.652;19.016;2024-03-25T10:40:48;98997.97;;;10.97;54.99
64683;BME280;51107;47.652;19.016;2024-03-25T10:43:20;98992.78;;;10.57;53.87
64683;BME280;51107;47.652;19.016;2024-03-25T10:45:49;98995.81;;;10.77;53.30
64683;BME280;51107;47.652;19.016;2024-03-25T10:48:35;98999.03;;;10.40;53.70
64683;BME280;51107;47.652;19.016;2024-03-25T10:51:04;98995.94;;;10.44;53.58
64683;BME280;51107;47.652;19.016;2024-03-25T10:53:35;98989.06;;;10.51;54.16
64683;BME280;51107;47.652;19.016;2024-03-25T10:56:03;98984.69;;;10.83;54.23
64683;BME280;51107;47.652;19.016;2024-03-25T10:58:33;98994.81;;;10.78;55.43
64683;BME280;51107;47.652;19.016;2024-03-25T11:01:01;98987.28;;;11.15;53.00
64683;BME280;51107;47.652;19.016;2024-03-25T11:03:28;98997.66;;;10.92;53.70
64683;BME280;51107;47.652;19.016;2024-03-25T11:05:56;99009.44;;;10.48;55.78
64683;BME280;51107;47.652;19.016;2024-03-25T11:08:30;99013.50;;;10.50;55.64
64683;BME280;51107;47.652;19.016;2024-03-25T11:10:58;99005.28;;;10.22;56.84
64683;BME280;51107;47.652;19.016;2024-03-25T11:13:27;99009.66;;;10.22;58.19
64683;BME280;51107;47.652;19.016;2024-03-25T11:15:57;99001.44;;;9.77;57.80
64683;BME280;51107;47.652;19.016;2024-03-25T11:18:26;98999.56;;;10.35;57.35
64683;BME280;51107;47.652;19.016;2024-03-25T11:21:05;98983.62;;;11.01;55.37
64683;BME280;51107;47.652;19.016;2024-03-25T11:23:44;98994.34;;;10.75;55.56
64683;BME280;51107;47.652;19.016;2024-03-25T11:26:32;99006.75;;;10.64;62.67
64683;BME280;51107;47.652;19.016;2024-03-25T11:29:02;99010.06;;;9.77;66.45
64683;BME280;51107;47.652;19.016;2024-03-25T11:31:30;99008.13;;;9.38;70.70
64683;BME280;51107;47.652;19.016;2024-03-25T11:34:05;99005.44;;;8.89;75.18
64683;BME280;51107;47.652;19.016;2024-03-25T11:36:35;98999.44;;;8.96;73.62
64683;BME280;51107;47.652;19.016;2024-03-25T11:39:03;99011.97;;;9.01;74.99
64683;BME280;51107;47.652;19.016;2024-03-25T11:41:35;98993.44;;;8.96;80.27
64683;BME280;51107;47.652;19.016;2024-03-25T11:44:10;98993.44;;;8.96;80.25
64683;BME280;51107;47.652;19.016;2024-03-25T11:46:38;99004.03;;;9.19;81.22
64683;BME280;51107;47.652;19.016;2024-03-25T11:49:07;99000.16;;;9.64;76.54
64683;BME280;51107;47.652;19.016;2024-03-25T11:51:35;99012.50;;;9.46;75.66
64683;BME280;51107;47.652;19.016;2024-03-25T11:54:03;99009.56;;;9.57;67.21
64683;BME280;51107;47.652;19.016;2024-03-25T11:56:31;99005.53;;;9.71;64.62
64683;BME280;51107;47.652;19.016;2024-03-25T11:59:00;99001.75;;;9.41;69.17
64683;BME280;51107;47.652;19.016;2024-03-25T12:01:27;99010.06;;;9.44;68.69
64683;BME280;51107;47.652;19.016;2024-03-25T12:03:54;99025.47;;;9.38;67.67
64683;BME280;51107;47.652;19.016;2024-03-25T12:06:21;99029.88;;;9.37;66.63
64683;BME280;51107;47.652;19.016;2024-03-25T12:08:49;99047.09;;;9.30;67.42
64683;BME280;51107;47.652;19.016;2024-03-25T12:11:35;99044.75;;;9.02;70.96
64683;BME280;51107;47.652;19.016;2024-03-25T12:14:02;99055.59;;;8.89;70.49
64683;BME280;51107;47.652;19.016;2024-03-25T12:16:29;99055.81;;;8.61;70.95
64683;BME280;51107;47.652;19.016;2024-03-25T12:18:59;99054.59;;;8.21;73.48
64683;BME280;51107;47.652;19.016;2024-03-25T12:21:26;99045.88;;;8.04;75.60
64683;BME280;51107;47.652;19.016;2024-03-25T12:23:53;99035.06;;;7.82;78.71
64683;BME280;51107;47.652;19.016;2024-03-25T12:26:21;99036.97;;;7.80;79.14
64683;BME280;51107;47.652;19.016;2024-03-25T12:28:48;99024.72;;;7.64;82.91
64683;BME280;51107;47.652;19.016;2024-03-25T12:31:16;99025.22;;;7.68;83.26
64683;BME280;51107;47.652;19.016;2024-03-25T12:33:44;99010.66;;;7.75;81.77
64683;BME280;51107;47.652;19.016;2024-03-25T12:36:14;99001.03;;;7.86;82.80
64683;BME280;51107;47.652;19.016;2024-03-25T12:38:41;99015.22;;;7.99;83.05
64683;BME280;51107;47.652;19.016;2024-03-25T12:41:12;98991.16;;;8.15;82.11
64683;BME280;51107;47.652;19.016;2024-03-25T12:43:43;99003.59;;;8.38;80.64
64683;BME280;51107;47.652;19.016;2024-03-25T12:46:11;98993.81;;;8.58;79.19
64683;BME280;51107;47.652;19.016;2024-03-25T12:48:39;98992.09;;;8.75;82.42
64683;BME280;51107;47.652;19.016;2024-03-25T12:51:13;98993.28;;;8.97;76.64
64683;BME280;51107;47.652;19.016;2024-03-25T12:53:41;98999.25;;;8.98;75.46
64683;BME280;51107;47.652;19.016;2024-03-25T12:56:08;98994.25;;;9.05;73.40
64683;BME280;51107;47.652;19.016;2024-03-25T12:58:36;98992.53;;;9.38;77.66
64683;BME280;51107;47.652;19.016;2024-03-25T13:01:03;98994.28;;;9.54;76.39